Marine Rouge — JG5115 — position and weather

sailwx.info

Track history (hours):
 
Tides and Currents Weather Stations Pressure Air Temp Water Temp Dewpoint Dewpoint Depression Visibility Wind Speed Wind Dir Waves Ship Positions

Marine Rouge

Last reported at 2014-Jul-24 03:33 UTC. Time now 2014-Jul-24 03:59 UTC.
Position N 35°27' E 139°39'.

Length 52 m; draft 2.8 m.

Type: Passenger vessel. MMSI: 431000518.

Date/timePositionNaut miles runAvg speedWind from/ knotsBaromVisibWave heightAir tempDewpointWater temp
2014-Jul-24 03:33N 35°27' E 139°39'1 0.7
2014-Jul-24 02:33N 35°27' E 139°39'0 0.0
2014-Jul-24 01:33N 35°27' E 139°39'0 0.0
2014-Jul-24 00:33N 35°27' E 139°39'0 0.0
2014-Jul-23 12:26N 35°27' E 139°39'1 0.9
2014-Jul-23 11:33N 35°28' E 139°40'1 0.9
2014-Jul-23 10:33N 35°27' E 139°39'1 0.5
2014-Jul-23 09:33N 35°27' E 139°39'0 0.0
2014-Jul-23 08:33N 35°27' E 139°39'1 0.5
2014-Jul-23 07:34N 35°27' E 139°39'1 0.5
2014-Jul-23 06:33N 35°27' E 139°39'0 0.1
2014-Jul-23 05:33N 35°27' E 139°39'0 0.1
2014-Jul-23 04:33N 35°27' E 139°39'1 0.5
2014-Jul-23 03:33N 35°27' E 139°39'1 0.5
2014-Jul-23 02:33N 35°27' E 139°39'0 0.1
2014-Jul-23 01:33N 35°27' E 139°39'0 0.1
2014-Jul-23 00:33N 35°27' E 139°39'1 0.0
2014-Jul-22 12:34N 35°27' E 139°39'2 1.8
2014-Jul-22 11:33N 35°28' E 139°41'2 1.8
2014-Jul-22 10:34N 35°27' E 139°39'1 0.5
2014-Jul-22 09:33N 35°27' E 139°39'0 0.0
2014-Jul-22 08:33N 35°27' E 139°39'1 0.7
2014-Jul-22 07:33N 35°27' E 139°39'1 0.7
2014-Jul-22 06:33N 35°27' E 139°39'0 0.1
2014-Jul-22 05:33N 35°27' E 139°39'0 0.1
2014-Jul-22 04:33N 35°27' E 139°39'1 0.5
2014-Jul-22 03:34N 35°27' E 139°39'1 0.5
2014-Jul-22 02:33N 35°27' E 139°39'0 0.0
2014-Jul-22 01:33N 35°27' E 139°39'0 0.0
2014-Jul-22 00:33N 35°27' E 139°39'1 0.1
2014-Jul-21 12:26N 35°28' E 139°39'0 0.5
2014-Jul-21 11:33N 35°28' E 139°39'0 0.4
2014-Jul-21 10:34N 35°27' E 139°39'1 0.6
2014-Jul-21 09:33N 35°27' E 139°39'0 0.0
2014-Jul-21 08:33N 35°27' E 139°39'1 0.5
2014-Jul-21 07:33N 35°27' E 139°39'1 0.5
2014-Jul-21 06:33N 35°27' E 139°39'0 0.1
2014-Jul-21 05:33N 35°27' E 139°39'0 0.1
2014-Jul-21 04:33N 35°27' E 139°39'1 0.6
2014-Jul-21 03:34N 35°27' E 139°39'1 0.6
2014-Jul-21 02:33N 35°27' E 139°39'0 0.0
2014-Jul-21 01:33N 35°27' E 139°39'0 0.0
2014-Jul-21 00:33N 35°27' E 139°39'1 0.1
2014-Jul-20 11:33N 35°27' E 139°40'0 0.2
2014-Jul-20 10:33N 35°27' E 139°39'1 0.8
2014-Jul-20 09:33N 35°27' E 139°39'0 0.0
2014-Jul-20 08:33N 35°27' E 139°39'3 2.8
2014-Jul-20 07:34N 35°28' E 139°42'3 2.8
2014-Jul-20 06:33N 35°27' E 139°39'0 0.2
2014-Jul-20 05:34N 35°27' E 139°39'0 0.1
2014-Jul-20 04:33N 35°27' E 139°39'1 0.5
2014-Jul-20 03:33N 35°27' E 139°39'1 0.5
2014-Jul-20 02:33N 35°27' E 139°39'0 0.0
2014-Jul-20 01:33N 35°27' E 139°39'0 0.0
2014-Jul-20 00:33N 35°27' E 139°39'0 0.0
2014-Jul-19 11:32N 35°27' E 139°39'1 0.6
2014-Jul-19 10:33N 35°27' E 139°39'1 0.6
2014-Jul-19 09:33N 35°27' E 139°39'0 0.0
2014-Jul-19 08:33N 35°27' E 139°39'3 2.9
2014-Jul-19 07:33N 35°28' E 139°42'3 2.9
2014-Jul-19 06:33N 35°27' E 139°39'0 0.1
2014-Jul-19 05:34N 35°27' E 139°39'0 0.1
2014-Jul-19 04:33N 35°27' E 139°39'1 0.5
2014-Jul-19 03:33N 35°27' E 139°39'1 0.5
2014-Jul-19 02:33N 35°27' E 139°39'0 0.0
2014-Jul-19 01:33N 35°27' E 139°39'0 0.0
2014-Jul-19 00:33N 35°27' E 139°39'1 0.0
2014-Jul-18 12:34N 35°27' E 139°39'0 0.4
2014-Jul-18 11:33N 35°28' E 139°39'1 0.6
2014-Jul-18 10:34N 35°27' E 139°39'1 0.5
2014-Jul-18 09:34N 35°27' E 139°39'0 0.4
2014-Jul-18 08:34N 35°27' E 139°39'0 0.5
2014-Jul-18 07:33N 35°28' E 139°39'1 0.9
2014-Jul-18 06:34N 35°27' E 139°39'0 0.0
2014-Jul-18 05:34N 35°27' E 139°39'0 0.0
2014-Jul-18 04:33N 35°27' E 139°39'1 0.6
2014-Jul-18 03:34N 35°27' E 139°39'1 0.6
2014-Jul-18 02:34N 35°27' E 139°39'0 0.0
2014-Jul-18 01:34N 35°27' E 139°39'0 0.0
2014-Jul-18 00:34N 35°27' E 139°39'2 0.1
2014-Jul-17 11:34N 35°28' E 139°40'2 1.6
2014-Jul-17 10:34N 35°27' E 139°39'1 0.5
2014-Jul-17 09:34N 35°27' E 139°39'0 0.0
2014-Jul-17 08:34N 35°27' E 139°39'3 2.8
2014-Jul-17 07:33N 35°28' E 139°42'3 2.8
2014-Jul-17 06:34N 35°27' E 139°39'0 0.1
2014-Jul-17 05:34N 35°27' E 139°39'0 0.1
2014-Jul-17 04:34N 35°27' E 139°39'1 0.8
2014-Jul-17 03:34N 35°27' E 139°39'1 0.8
2014-Jul-17 02:34N 35°27' E 139°39'0 0.0
2014-Jul-17 01:34N 35°27' E 139°39'0 0.0
2014-Jul-17 00:34N 35°27' E 139°39'1 0.1
2014-Jul-16 12:34N 35°27' E 139°39'2 1.6
2014-Jul-16 11:33N 35°28' E 139°41'2 1.7
2014-Jul-16 10:33N 35°27' E 139°39'1 0.5
2014-Jul-16 09:33N 35°27' E 139°39'0 0.1
2014-Jul-16 08:34N 35°27' E 139°39'1 0.6
2014-Jul-16 07:33N 35°27' E 139°39'1 0.8
2014-Jul-16 06:33N 35°27' E 139°39'0 0.1
2014-Jul-16 05:33N 35°27' E 139°39'1 0.7
2014-Jul-16 04:33N 35°28' E 139°40'1 0.7
2014-Jul-16 03:33N 35°27' E 139°39'1 0.6
2014-Jul-16 02:33N 35°27' E 139°39'0 0.0
2014-Jul-16 01:33N 35°27' E 139°39'0 0.0
2014-Jul-16 00:33N 35°27' E 139°39'0 0.0
2014-Jul-15 12:26N 35°27' E 139°39'1 0.8
2014-Jul-15 11:34N 35°28' E 139°39'0 0.4
2014-Jul-15 10:33N 35°27' E 139°40'1 0.9
2014-Jul-15 09:33N 35°27' E 139°39'0 0.0
2014-Jul-15 08:33N 35°27' E 139°39'1 0.5
2014-Jul-15 07:33N 35°27' E 139°39'1 0.5
2014-Jul-15 06:33N 35°27' E 139°39'0 0.0
2014-Jul-15 05:33N 35°27' E 139°39'1 1.1
2014-Jul-15 04:34N 35°28' E 139°40'1 0.8
2014-Jul-15 03:33N 35°27' E 139°39'1 0.6
2014-Jul-15 02:33N 35°27' E 139°39'0 0.0
2014-Jul-15 01:34N 35°27' E 139°39'1 0.0
2014-Jul-14 12:32N 35°27' E 139°39'2 1.6
2014-Jul-14 11:33N 35°28' E 139°41'2 1.9
2014-Jul-14 10:33N 35°27' E 139°39'1 0.5
2014-Jul-14 09:33N 35°27' E 139°39'0 0.1
2014-Jul-14 08:34N 35°27' E 139°39'1 0.6
2014-Jul-14 07:34N 35°27' E 139°39'1 0.7
2014-Jul-14 06:33N 35°27' E 139°39'0 0.1
2014-Jul-14 05:33N 35°27' E 139°39'0 0.1
2014-Jul-14 04:33N 35°27' E 139°39'1 0.5
2014-Jul-14 03:33N 35°27' E 139°39'  
Track history (hours):
 
Tides and Currents Weather Stations Pressure Air Temp Water Temp Dewpoint Dewpoint Depression Visibility Wind Speed Wind Dir Waves Ship Positions

Marine Rouge

Last reported at 2014-Jul-24 03:33 UTC. Time now 2014-Jul-24 03:59 UTC.
Position N 35°27' E 139°39'.

Length 52 m; draft 2.8 m.

Type: Passenger vessel. MMSI: 431000518.

Date/timePositionNaut miles runAvg speedWind from/ knotsBaromVisibWave heightAir tempDewpointWater temp
2014-Jul-24 03:33N 35°27' E 139°39'1 0.7
2014-Jul-24 02:33N 35°27' E 139°39'0 0.0
2014-Jul-24 01:33N 35°27' E 139°39'0 0.0
2014-Jul-24 00:33N 35°27' E 139°39'0 0.0
2014-Jul-23 12:26N 35°27' E 139°39'1 0.9
2014-Jul-23 11:33N 35°28' E 139°40'1 0.9
2014-Jul-23 10:33N 35°27' E 139°39'1 0.5
2014-Jul-23 09:33N 35°27' E 139°39'0 0.0
2014-Jul-23 08:33N 35°27' E 139°39'1 0.5
2014-Jul-23 07:34N 35°27' E 139°39'1 0.5
2014-Jul-23 06:33N 35°27' E 139°39'0 0.1
2014-Jul-23 05:33N 35°27' E 139°39'0 0.1
2014-Jul-23 04:33N 35°27' E 139°39'1 0.5
2014-Jul-23 03:33N 35°27' E 139°39'1 0.5
2014-Jul-23 02:33N 35°27' E 139°39'0 0.1
2014-Jul-23 01:33N 35°27' E 139°39'0 0.1
2014-Jul-23 00:33N 35°27' E 139°39'1 0.0
2014-Jul-22 12:34N 35°27' E 139°39'2 1.8
2014-Jul-22 11:33N 35°28' E 139°41'2 1.8
2014-Jul-22 10:34N 35°27' E 139°39'1 0.5
2014-Jul-22 09:33N 35°27' E 139°39'0 0.0
2014-Jul-22 08:33N 35°27' E 139°39'1 0.7
2014-Jul-22 07:33N 35°27' E 139°39'1 0.7
2014-Jul-22 06:33N 35°27' E 139°39'0 0.1
2014-Jul-22 05:33N 35°27' E 139°39'0 0.1
2014-Jul-22 04:33N 35°27' E 139°39'1 0.5
2014-Jul-22 03:34N 35°27' E 139°39'1 0.5
2014-Jul-22 02:33N 35°27' E 139°39'0 0.0
2014-Jul-22 01:33N 35°27' E 139°39'0 0.0
2014-Jul-22 00:33N 35°27' E 139°39'1 0.1
2014-Jul-21 12:26N 35°28' E 139°39'0 0.5
2014-Jul-21 11:33N 35°28' E 139°39'0 0.4
2014-Jul-21 10:34N 35°27' E 139°39'1 0.6
2014-Jul-21 09:33N 35°27' E 139°39'0 0.0
2014-Jul-21 08:33N 35°27' E 139°39'1 0.5
2014-Jul-21 07:33N 35°27' E 139°39'1 0.5
2014-Jul-21 06:33N 35°27' E 139°39'0 0.1
2014-Jul-21 05:33N 35°27' E 139°39'0 0.1
2014-Jul-21 04:33N 35°27' E 139°39'1 0.6
2014-Jul-21 03:34N 35°27' E 139°39'1 0.6
2014-Jul-21 02:33N 35°27' E 139°39'0 0.0
2014-Jul-21 01:33N 35°27' E 139°39'0 0.0
2014-Jul-21 00:33N 35°27' E 139°39'1 0.1
2014-Jul-20 11:33N 35°27' E 139°40'0 0.2
2014-Jul-20 10:33N 35°27' E 139°39'1 0.8
2014-Jul-20 09:33N 35°27' E 139°39'0 0.0
2014-Jul-20 08:33N 35°27' E 139°39'3 2.8
2014-Jul-20 07:34N 35°28' E 139°42'3 2.8
2014-Jul-20 06:33N 35°27' E 139°39'0 0.2
2014-Jul-20 05:34N 35°27' E 139°39'0 0.1
2014-Jul-20 04:33N 35°27' E 139°39'1 0.5
2014-Jul-20 03:33N 35°27' E 139°39'1 0.5
2014-Jul-20 02:33N 35°27' E 139°39'0 0.0
2014-Jul-20 01:33N 35°27' E 139°39'0 0.0
2014-Jul-20 00:33N 35°27' E 139°39'0 0.0
2014-Jul-19 11:32N 35°27' E 139°39'1 0.6
2014-Jul-19 10:33N 35°27' E 139°39'1 0.6
2014-Jul-19 09:33N 35°27' E 139°39'0 0.0
2014-Jul-19 08:33N 35°27' E 139°39'3 2.9
2014-Jul-19 07:33N 35°28' E 139°42'3 2.9
2014-Jul-19 06:33N 35°27' E 139°39'0 0.1
2014-Jul-19 05:34N 35°27' E 139°39'0 0.1
2014-Jul-19 04:33N 35°27' E 139°39'1 0.5
2014-Jul-19 03:33N 35°27' E 139°39'1 0.5
2014-Jul-19 02:33N 35°27' E 139°39'0 0.0
2014-Jul-19 01:33N 35°27' E 139°39'0 0.0
2014-Jul-19 00:33N 35°27' E 139°39'1 0.0
2014-Jul-18 12:34N 35°27' E 139°39'0 0.4
2014-Jul-18 11:33N 35°28' E 139°39'1 0.6
2014-Jul-18 10:34N 35°27' E 139°39'1 0.5
2014-Jul-18 09:34N 35°27' E 139°39'0 0.4
2014-Jul-18 08:34N 35°27' E 139°39'0 0.5
2014-Jul-18 07:33N 35°28' E 139°39'1 0.9
2014-Jul-18 06:34N 35°27' E 139°39'0 0.0
2014-Jul-18 05:34N 35°27' E 139°39'0 0.0
2014-Jul-18 04:33N 35°27' E 139°39'1 0.6
2014-Jul-18 03:34N 35°27' E 139°39'1 0.6
2014-Jul-18 02:34N 35°27' E 139°39'0 0.0
2014-Jul-18 01:34N 35°27' E 139°39'0 0.0
2014-Jul-18 00:34N 35°27' E 139°39'2 0.1
2014-Jul-17 11:34N 35°28' E 139°40'2 1.6
2014-Jul-17 10:34N 35°27' E 139°39'1 0.5
2014-Jul-17 09:34N 35°27' E 139°39'0 0.0
2014-Jul-17 08:34N 35°27' E 139°39'3 2.8
2014-Jul-17 07:33N 35°28' E 139°42'3 2.8
2014-Jul-17 06:34N 35°27' E 139°39'0 0.1
2014-Jul-17 05:34N 35°27' E 139°39'0 0.1
2014-Jul-17 04:34N 35°27' E 139°39'1 0.8
2014-Jul-17 03:34N 35°27' E 139°39'1 0.8
2014-Jul-17 02:34N 35°27' E 139°39'0 0.0
2014-Jul-17 01:34N 35°27' E 139°39'0 0.0
2014-Jul-17 00:34N 35°27' E 139°39'1 0.1
2014-Jul-16 12:34N 35°27' E 139°39'2 1.6
2014-Jul-16 11:33N 35°28' E 139°41'2 1.7
2014-Jul-16 10:33N 35°27' E 139°39'1 0.5
2014-Jul-16 09:33N 35°27' E 139°39'0 0.1
2014-Jul-16 08:34N 35°27' E 139°39'1 0.6
2014-Jul-16 07:33N 35°27' E 139°39'1 0.8
2014-Jul-16 06:33N 35°27' E 139°39'0 0.1
2014-Jul-16 05:33N 35°27' E 139°39'1 0.7
2014-Jul-16 04:33N 35°28' E 139°40'1 0.7
2014-Jul-16 03:33N 35°27' E 139°39'1 0.6
2014-Jul-16 02:33N 35°27' E 139°39'0 0.0
2014-Jul-16 01:33N 35°27' E 139°39'0 0.0
2014-Jul-16 00:33N 35°27' E 139°39'0 0.0
2014-Jul-15 12:26N 35°27' E 139°39'1 0.8
2014-Jul-15 11:34N 35°28' E 139°39'0 0.4
2014-Jul-15 10:33N 35°27' E 139°40'1 0.9
2014-Jul-15 09:33N 35°27' E 139°39'0 0.0
2014-Jul-15 08:33N 35°27' E 139°39'1 0.5
2014-Jul-15 07:33N 35°27' E 139°39'1 0.5
2014-Jul-15 06:33N 35°27' E 139°39'0 0.0
2014-Jul-15 05:33N 35°27' E 139°39'1 1.1
2014-Jul-15 04:34N 35°28' E 139°40'1 0.8
2014-Jul-15 03:33N 35°27' E 139°39'1 0.6
2014-Jul-15 02:33N 35°27' E 139°39'0 0.0
2014-Jul-15 01:34N 35°27' E 139°39'1 0.0
2014-Jul-14 12:32N 35°27' E 139°39'2 1.6
2014-Jul-14 11:33N 35°28' E 139°41'2 1.9
2014-Jul-14 10:33N 35°27' E 139°39'1 0.5
2014-Jul-14 09:33N 35°27' E 139°39'0 0.1
2014-Jul-14 08:34N 35°27' E 139°39'1 0.6
2014-Jul-14 07:34N 35°27' E 139°39'1 0.7
2014-Jul-14 06:33N 35°27' E 139°39'0 0.1
2014-Jul-14 05:33N 35°27' E 139°39'0 0.1
2014-Jul-14 04:33N 35°27' E 139°39'1 0.5
2014-Jul-14 03:33N 35°27' E 139°39'  

Dump ship's entire track history